Time;durP1;ratioP1;P1;durP2;ratioP2;P2;SDS_P1;SDS_P2;PMS_P1;PMS_P2;Temp;Humidity;BMP_temperature;BMP_pressure;BME280_temperature;BME280_humidity;BME280_pressure;Samples;Min_cycle;Max_cycle;Signal;HPM_P1;HPM_P2
2021/03/17 00:01:49;;;;;;;1.15;0.30;;;6.10;31.70;;;;;;5079775;28;20119;-72
2021/03/17 00:04:14;;;;;;;0.30;0.20;;;6.20;31.60;;;;;;5079399;28;20320;-72
2021/03/17 00:06:40;;;;;;;0.50;0.20;;;6.40;31.60;;;;;;5079474;28;20078;-72
2021/03/17 00:09:05;;;;;;;0.22;0.10;;;6.40;31.90;;;;;;5061708;28;20028;-72
2021/03/17 00:11:32;;;;;;;0.47;0.20;;;6.30;33.80;;;;;;5061621;28;20036;-72
2021/03/17 00:13:58;;;;;;;0.38;0.30;;;6.10;32.70;;;;;;5079498;28;20044;-72
2021/03/17 00:16:24;;;;;;;0.30;0.25;;;5.90;34.50;;;;;;5079156;28;20357;-72
2021/03/17 00:18:51;;;;;;;0.57;0.25;;;5.80;35.30;;;;;;5079211;28;20020;-72
2021/03/17 00:21:16;;;;;;;0.20;0.20;;;5.90;33.00;;;;;;5079172;28;20063;-72
2021/03/17 00:23:42;;;;;;;0.20;0.20;;;6.10;32.30;;;;;;5078855;28;20447;-72
2021/03/17 00:26:07;;;;;;;0.50;0.30;;;6.20;32.10;;;;;;5060366;28;20413;-72
2021/03/17 00:28:33;;;;;;;0.20;0.15;;;6.20;32.50;;;;;;5079183;28;20031;-72
2021/03/17 00:30:59;;;;;;;1.13;0.40;;;6.20;33.50;;;;;;5079256;28;20035;-72
2021/03/17 00:33:24;;;;;;;0.40;0.22;;;6.10;31.80;;;;;;5078979;28;20020;-72
2021/03/17 00:35:50;;;;;;;0.20;0.13;;;6.10;33.70;;;;;;5079027;28;20424;-72
2021/03/17 00:38:16;;;;;;;1.08;0.40;;;5.90;36.20;;;;;;5078811;28;20056;-72
2021/03/17 00:40:41;;;;;;;0.60;0.50;;;5.60;37.60;;;;;;5079077;28;20021;-72
2021/03/17 00:43:07;;;;;;;0.60;0.55;;;5.40;38.80;;;;;;5078729;28;20024;-72
2021/03/17 00:45:33;;;;;;;0.65;0.30;;;5.10;40.80;;;;;;5078667;28;20032;-72
2021/03/17 00:47:58;;;;;;;0.28;0.20;;;5.10;35.50;;;;;;5078690;28;20021;-72
2021/03/17 00:50:24;;;;;;;0.60;0.30;;;5.20;36.10;;;;;;5060911;28;20029;-72
2021/03/17 00:52:50;;;;;;;0.80;0.50;;;5.20;35.20;;;;;;5078864;28;20032;-72
2021/03/17 00:55:16;;;;;;;1.42;0.30;;;5.30;35.30;;;;;;5078680;28;20045;-72
2021/03/17 00:57:42;;;;;;;0.35;0.22;;;5.30;35.90;;;;;;5078585;28;20024;-72
2021/03/17 01:00:10;;;;;;;0.70;0.30;;;5.30;33.50;;;;;;5078375;28;20396;-72
2021/03/17 01:02:36;;;;;;;0.50;0.20;;;5.50;34.20;;;;;;5078346;28;20017;-72
2021/03/17 01:05:03;;;;;;;0.32;0.28;;;5.50;34.30;;;;;;5078313;28;20367;-72
2021/03/17 01:07:28;;;;;;;0.73;0.30;;;5.50;35.10;;;;;;5078249;28;20021;-72
2021/03/17 01:09:55;;;;;;;0.40;0.20;;;5.40;36.00;;;;;;5078234;28;20418;-72
2021/03/17 01:12:21;;;;;;;0.28;0.20;;;5.20;35.80;;;;;;5078382;28;20108;-72
2021/03/17 01:14:47;;;;;;;0.32;0.20;;;5.20;34.00;;;;;;5077982;28;20099;-72
2021/03/17 01:17:13;;;;;;;1.52;0.30;;;5.20;38.60;;;;;;5078392;28;20096;-72
2021/03/17 01:19:38;;;;;;;0.40;0.13;;;5.10;36.50;;;;;;5078322;28;20412;-72
2021/03/17 01:22:04;;;;;;;0.50;0.20;;;5.00;37.10;;;;;;5060295;28;20127;-72
2021/03/17 01:24:31;;;;;;;1.02;0.17;;;4.80;38.70;;;;;;5077717;28;20072;-72
2021/03/17 01:26:56;;;;;;;0.22;0.20;;;4.80;34.20;;;;;;5078073;28;20029;-71
2021/03/17 01:29:23;;;;;;;0.50;0.20;;;4.90;36.50;;;;;;5060132;28;20309;-72
2021/03/17 01:31:48;;;;;;;0.40;0.20;;;4.90;38.80;;;;;;5078040;28;20031;-72
2021/03/17 01:34:14;;;;;;;1.85;0.20;;;4.70;37.60;;;;;;5077903;28;20407;-72
2021/03/17 01:36:40;;;;;;;0.40;0.20;;;4.60;37.10;;;;;;5077727;28;20024;-72
2021/03/17 01:39:06;;;;;;;0.20;0.20;;;4.60;38.40;;;;;;5077921;28;20055;-72
2021/03/17 01:41:31;;;;;;;0.60;0.30;;;4.40;37.70;;;;;;5077795;28;20017;-72
2021/03/17 01:43:57;;;;;;;0.47;0.20;;;4.50;36.80;;;;;;5077488;28;20396;-72
2021/03/17 01:46:23;;;;;;;0.50;0.30;;;4.60;35.70;;;;;;5077504;28;20297;-72
2021/03/17 01:48:49;;;;;;;1.20;0.20;;;4.80;36.60;;;;;;5077480;28;20035;-72
2021/03/17 01:51:14;;;;;;;0.20;0.20;;;4.80;37.60;;;;;;5077434;28;20021;-72
2021/03/17 01:53:41;;;;;;;0.13;0.13;;;4.70;40.10;;;;;;5077701;28;20039;-72
2021/03/17 01:56:08;;;;;;;0.20;0.20;;;4.50;41.30;;;;;;5077252;28;20029;-72
2021/03/17 01:58:37;;;;;;;0.40;0.30;;;4.30;39.70;;;;;;5077325;28;20020;-72
2021/03/17 02:01:04;;;;;;;0.63;0.30;;;4.30;39.70;;;;;;5077291;28;20028;-72
2021/03/17 02:03:30;;;;;;;1.23;0.40;;;4.20;42.70;;;;;;5077057;28;20412;-72
2021/03/17 02:05:56;;;;;;;0.52;0.22;;;4.00;39.80;;;;;;5077395;28;20074;-72
2021/03/17 02:08:28;;;;;;;0.60;0.30;;;4.20;38.20;;;;;;5059445;28;20025;-72
2021/03/17 02:10:53;;;;;;;0.93;0.38;;;4.50;37.00;;;;;;5077403;28;20104;-71
2021/03/17 02:13:48;;;;;;;1.00;0.38;;;4.80;37.20;;;;;;5076967;28;20067;-71
2021/03/17 02:16:26;;;;;;;0.60;0.30;;;4.90;37.00;;;;;;5077033;28;20078;-71
2021/03/17 02:19:12;;;;;;;0.70;0.40;;;4.90;37.40;;;;;;5077033;28;20020;-71
2021/03/17 02:22:06;;;;;;;0.52;0.30;;;5.00;37.10;;;;;;5077181;28;20024;-71
2021/03/17 02:24:45;;;;;;;0.90;0.40;;;5.00;37.90;;;;;;5076671;28;20372;-71
2021/03/17 02:27:42;;;;;;;1.02;0.32;;;5.00;37.30;;;;;;5059129;28;20025;-71
2021/03/17 02:30:17;;;;;;;0.40;0.30;;;5.00;36.50;;;;;;5060785;28;20047;-71
2021/03/17 02:33:02;;;;;;;1.77;0.30;;;5.20;35.60;;;;;;5077012;28;20048;-71
2021/03/17 02:35:31;;;;;;;0.57;0.30;;;5.30;35.10;;;;;;5076745;28;20033;-71
2021/03/17 02:38:00;;;;;;;0.52;0.40;;;5.40;35.40;;;;;;5077058;28;20024;-71
2021/03/17 02:40:31;;;;;;;0.50;0.30;;;5.40;35.40;;;;;;5077024;28;20028;-71
2021/03/17 02:43:12;;;;;;;0.50;0.30;;;5.40;35.40;;;;;;5076868;28;20024;-71
2021/03/17 02:45:41;;;;;;;1.02;0.40;;;5.30;35.20;;;;;;5076900;28;20037;-71
2021/03/17 02:48:23;;;;;;;0.30;0.20;;;5.30;35.50;;;;;;5058343;28;20020;-71
2021/03/17 02:50:52;;;;;;;0.70;0.40;;;5.30;35.80;;;;;;5077054;28;20050;-71
2021/03/17 02:53:21;;;;;;;1.20;0.38;;;5.20;35.80;;;;;;5076813;28;20032;-72
2021/03/17 02:55:59;;;;;;;0.45;0.35;;;5.10;36.00;;;;;;5076600;28;20097;-71
2021/03/17 02:58:26;;;;;;;0.47;0.40;;;5.10;35.90;;;;;;5058795;28;20412;-71
2021/03/17 03:00:53;;;;;;;0.10;0.10;;;5.20;34.60;;;;;;5076537;28;20359;-71
2021/03/17 03:03:20;;;;;;;1.17;0.30;;;5.30;35.10;;;;;;5058695;28;20027;-71
2021/03/17 03:05:47;;;;;;;0.50;0.28;;;5.40;35.50;;;;;;5076727;28;20033;-71
2021/03/17 03:08:14;;;;;;;0.77;0.40;;;5.30;35.00;;;;;;5076803;28;20102;-71
2021/03/17 03:10:41;;;;;;;0.82;0.20;;;5.30;35.10;;;;;;5076452;28;20033;-72
2021/03/17 03:13:07;;;;;;;0.45;0.30;;;5.30;35.70;;;;;;5076291;28;20055;-72
2021/03/17 03:15:34;;;;;;;1.13;0.40;;;5.30;34.80;;;;;;5076588;28;20032;-72
2021/03/17 03:18:03;;;;;;;0.52;0.30;;;5.20;35.40;;;;;;5076344;28;20408;-71
2021/03/17 03:20:32;;;;;;;0.75;0.30;;;5.10;35.30;;;;;;5076563;28;20024;-71
2021/03/17 03:22:59;;;;;;;0.30;0.22;;;5.10;35.10;;;;;;5076305;28;20100;-72
2021/03/17 03:25:25;;;;;;;0.35;0.30;;;5.10;35.60;;;;;;5076364;28;20036;-72
2021/03/17 03:27:53;;;;;;;0.77;0.30;;;5.20;35.10;;;;;;5076291;28;20021;-72
2021/03/17 03:30:27;;;;;;;0.80;0.40;;;5.20;35.70;;;;;;5058499;28;20029;-72
2021/03/17 03:32:54;;;;;;;1.30;0.40;;;5.10;35.40;;;;;;5076098;28;20031;-72
2021/03/17 03:35:22;;;;;;;0.43;0.30;;;5.00;37.10;;;;;;5076040;28;20059;-72
2021/03/17 03:37:49;;;;;;;0.80;0.40;;;4.60;38.50;;;;;;5076455;28;20069;-72
2021/03/17 03:40:18;;;;;;;0.60;0.30;;;4.40;38.20;;;;;;5076185;28;20020;-72
2021/03/17 03:42:46;;;;;;;0.65;0.47;;;4.10;38.40;;;;;;5076359;28;20017;-72
2021/03/17 03:45:17;;;;;;;0.50;0.30;;;4.00;40.10;;;;;;5076091;28;20028;-72
2021/03/17 03:47:43;;;;;;;0.45;0.30;;;3.80;41.00;;;;;;5076336;28;20025;-72
2021/03/17 03:50:12;;;;;;;0.85;0.30;;;3.70;42.00;;;;;;5076339;28;20029;-72
2021/03/17 03:53:04;;;;;;;0.95;0.40;;;3.50;42.60;;;;;;5076375;28;20105;-72
2021/03/17 03:55:38;;;;;;;1.05;0.40;;;3.40;41.60;;;;;;5075975;28;20335;-72
2021/03/17 03:58:08;;;;;;;0.30;0.20;;;3.30;42.20;;;;;;5076455;28;20308;-72
2021/03/17 04:00:38;;;;;;;1.25;0.30;;;3.30;42.40;;;;;;5077083;28;20020;-71
2021/03/17 04:03:07;;;;;;;0.80;0.30;;;3.20;42.90;;;;;;5079751;28;20074;-72
2021/03/17 04:05:38;;;;;;;0.95;0.38;;;3.10;43.20;;;;;;5079769;28;20107;-71
2021/03/17 04:08:11;;;;;;;0.55;0.38;;;3.00;46.00;;;;;;5079633;28;20094;-72
2021/03/17 04:10:38;;;;;;;0.30;0.28;;;2.90;44.20;;;;;;5079654;28;20043;-71
2021/03/17 04:13:06;;;;;;;0.30;0.30;;;2.90;42.50;;;;;;5079337;28;20029;-71
2021/03/17 04:15:35;;;;;;;0.45;0.35;;;2.90;43.70;;;;;;5079260;28;20027;-72
2021/03/17 04:18:06;;;;;;;0.70;0.40;;;3.00;44.70;;;;;;5079207;28;20021;-72
2021/03/17 04:20:39;;;;;;;0.85;0.40;;;2.90;44.90;;;;;;5079249;28;20052;-71
2021/03/17 04:23:10;;;;;;;1.00;0.50;;;2.90;42.20;;;;;;5078987;28;20148;-72
2021/03/17 04:25:37;;;;;;;0.60;0.30;;;3.00;41.00;;;;;;5061461;28;20029;-72
2021/03/17 04:28:05;;;;;;;0.47;0.20;;;3.20;40.80;;;;;;5061340;28;20328;-71
2021/03/17 04:30:32;;;;;;;0.50;0.30;;;3.30;39.60;;;;;;5061318;28;20297;-72
2021/03/17 04:32:59;;;;;;;0.30;0.30;;;3.50;39.40;;;;;;5079163;28;20029;-72
2021/03/17 04:35:26;;;;;;;0.95;0.50;;;3.60;39.60;;;;;;5078846;28;20104;-72
2021/03/17 04:37:54;;;;;;;0.40;0.22;;;3.70;39.50;;;;;;5061158;28;20020;-72
2021/03/17 04:40:20;;;;;;;0.30;0.20;;;3.80;39.40;;;;;;5079127;28;20040;-71
2021/03/17 04:42:46;;;;;;;0.68;0.32;;;3.70;39.10;;;;;;5078765;28;20044;-72
2021/03/17 04:45:14;;;;;;;0.80;0.30;;;3.80;39.20;;;;;;5078711;28;20031;-71
2021/03/17 04:47:42;;;;;;;0.32;0.20;;;3.70;39.10;;;;;;5078928;28;20021;-72
2021/03/17 04:50:10;;;;;;;1.15;0.30;;;3.80;38.10;;;;;;5078948;28;20035;-72
2021/03/17 04:52:38;;;;;;;0.60;0.30;;;3.90;38.20;;;;;;5078841;28;20033;-71
2021/03/17 04:55:05;;;;;;;0.80;0.40;;;4.00;38.20;;;;;;5078469;28;20068;-71
2021/03/17 04:57:34;;;;;;;0.20;0.20;;;4.10;37.90;;;;;;5078692;28;20123;-71
2021/03/17 05:00:01;;;;;;;0.95;0.45;;;4.20;37.50;;;;;;5078385;28;20104;-72
2021/03/17 05:02:29;;;;;;;0.60;0.30;;;4.30;37.50;;;;;;5078360;28;20078;-72
2021/03/17 05:04:57;;;;;;;3.63;0.43;;;4.30;37.50;;;;;;5078293;28;20098;-71
2021/03/17 05:07:24;;;;;;;0.70;0.38;;;4.40;37.50;;;;;;5078314;28;20071;-71
2021/03/17 05:09:51;;;;;;;0.65;0.30;;;4.40;37.10;;;;;;5078230;28;20099;-71
2021/03/17 05:12:17;;;;;;;0.45;0.30;;;4.50;36.80;;;;;;5077909;28;20493;-71
2021/03/17 05:14:45;;;;;;;2.05;0.40;;;4.60;36.50;;;;;;5078109;28;20025;-72
2021/03/17 05:17:13;;;;;;;0.63;0.30;;;4.70;36.50;;;;;;5078390;28;20115;-71
2021/03/17 05:19:40;;;;;;;1.55;0.40;;;4.70;36.50;;;;;;5078049;28;20025;-71
2021/03/17 05:22:08;;;;;;;0.68;0.30;;;4.60;36.90;;;;;;5077958;28;20032;-72
2021/03/17 05:24:35;;;;;;;0.70;0.30;;;4.60;37.00;;;;;;5077702;28;20072;-72
2021/03/17 05:27:06;;;;;;;0.63;0.38;;;4.60;37.00;;;;;;5078125;28;20029;-72
2021/03/17 05:29:32;;;;;;;0.32;0.20;;;4.60;37.10;;;;;;5077864;28;20408;-72
2021/03/17 05:31:58;;;;;;;0.40;0.30;;;4.60;37.30;;;;;;5078087;28;20119;-72
2021/03/17 05:34:25;;;;;;;0.47;0.30;;;4.60;37.40;;;;;;5077738;28;20028;-72
2021/03/17 05:36:50;;;;;;;0.32;0.28;;;4.60;36.60;;;;;;5077778;28;20029;-72
2021/03/17 05:39:16;;;;;;;0.80;0.35;;;4.70;36.30;;;;;;5077621;28;20073;-71
2021/03/17 05:41:42;;;;;;;0.60;0.30;;;4.90;35.40;;;;;;5077918;28;20107;-72
2021/03/17 05:44:09;;;;;;;0.50;0.30;;;5.00;36.20;;;;;;5077524;28;20017;-71
2021/03/17 05:46:35;;;;;;;0.38;0.20;;;5.00;36.00;;;;;;5077561;28;20036;-72
2021/03/17 05:49:01;;;;;;;0.82;0.25;;;5.10;36.90;;;;;;5077576;28;20031;-72
2021/03/17 05:51:27;;;;;;;1.33;0.40;;;5.10;35.40;;;;;;5077456;28;20058;-72
2021/03/17 05:53:53;;;;;;;1.02;0.32;;;5.10;35.30;;;;;;5077755;28;20024;-72
2021/03/17 05:56:19;;;;;;;0.47;0.20;;;5.20;34.60;;;;;;5077574;28;20036;-72
2021/03/17 05:58:45;;;;;;;0.38;0.20;;;5.30;36.00;;;;;;5077295;28;20020;-72
2021/03/17 06:01:15;;;;;;;0.45;0.30;;;5.30;34.50;;;;;;5077230;28;20424;-72
2021/03/17 06:03:41;;;;;;;0.77;0.28;;;5.40;35.60;;;;;;5077145;28;20063;-72
2021/03/17 06:06:08;;;;;;;0.43;0.22;;;5.40;35.80;;;;;;5077467;28;20055;-72
2021/03/17 06:08:45;;;;;;;0.40;0.20;;;5.50;35.00;;;;;;5077444;28;20384;-72
2021/03/17 06:11:13;;;;;;;0.22;0.20;;;5.60;35.20;;;;;;5059405;28;20400;-72
2021/03/17 06:13:58;;;;;;;3.53;0.40;;;5.80;36.20;;;;;;5077249;28;20331;-72
2021/03/17 06:16:25;;;;;;;0.47;0.30;;;5.90;34.30;;;;;;5076998;28;20032;-72
2021/03/17 06:18:54;;;;;;;0.95;0.30;;;6.10;34.70;;;;;;5077096;28;20066;-72
2021/03/17 06:21:20;;;;;;;0.40;0.20;;;6.10;34.50;;;;;;5076966;28;20103;-72
2021/03/17 06:23:48;;;;;;;1.83;0.30;;;6.20;35.60;;;;;;5075981;28;20121;-72
2021/03/17 06:26:15;;;;;;;0.30;0.20;;;6.30;34.40;;;;;;5077012;28;20037;-72
2021/03/17 06:28:42;;;;;;;0.52;0.30;;;6.30;34.60;;;;;;5077164;28;20028;-72
2021/03/17 06:31:09;;;;;;;0.65;0.38;;;6.40;35.10;;;;;;5076849;28;20051;-72
2021/03/17 06:33:35;;;;;;;0.50;0.28;;;6.50;37.30;;;;;;5076845;28;20024;-72
2021/03/17 06:36:19;;;;;;;0.55;0.30;;;6.60;34.30;;;;;;5076674;28;20039;-72
2021/03/17 06:38:46;;;;;;;0.30;0.20;;;6.60;32.20;;;;;;5076718;28;20016;-72
2021/03/17 06:41:13;;;;;;;0.57;0.30;;;6.60;35.10;;;;;;5076763;28;20103;-72
2021/03/17 06:43:49;;;;;;;0.30;0.20;;;6.60;33.50;;;;;;5076867;28;20020;-72
2021/03/17 06:46:17;;;;;;;0.10;0.10;;;6.60;33.30;;;;;;5076742;28;20029;-72
2021/03/17 06:48:43;;;;;;;0.13;0.10;;;6.80;33.20;;;;;;5076806;28;20108;-72
2021/03/17 06:51:20;;;;;;;0.30;0.20;;;6.80;33.70;;;;;;5076863;28;20064;-72
2021/03/17 06:53:53;;;;;;;0.73;0.30;;;6.80;32.70;;;;;;5076488;28;20115;-72
2021/03/17 06:56:26;;;;;;;1.02;0.30;;;7.00;32.70;;;;;;5076848;28;20039;-72
2021/03/17 06:58:57;;;;;;;0.85;0.30;;;7.00;31.80;;;;;;5076701;28;20013;-72
2021/03/17 07:01:52;;;;;;;0.90;0.30;;;7.00;35.10;;;;;;5058815;28;20028;-72
2021/03/17 07:04:25;;;;;;;0.68;0.30;;;7.10;34.90;;;;;;5059161;28;20025;-72
2021/03/17 07:07:01;;;;;;;0.30;0.20;;;7.10;32.90;;;;;;5076474;28;20036;-72
2021/03/17 07:09:28;;;;;;;0.45;0.30;;;7.20;32.80;;;;;;5076524;28;20035;-72
2021/03/17 07:12:11;;;;;;;0.65;0.20;;;7.20;32.20;;;;;;5076434;28;20031;-72
2021/03/17 07:14:38;;;;;;;0.32;0.20;;;7.30;33.50;;;;;;5076349;28;20035;-72
2021/03/17 07:17:25;;;;;;;0.45;0.20;;;7.40;32.00;;;;;;5076360;28;20359;-72
2021/03/17 07:19:51;;;;;;;0.55;0.20;;;7.40;35.20;;;;;;5076436;28;20431;-72
2021/03/17 07:22:17;;;;;;;0.35;0.10;;;7.60;37.30;;;;;;5076330;28;20051;-72
2021/03/17 07:24:45;;;;;;;0.68;0.30;;;7.80;36.40;;;;;;5076153;28;20436;-72
2021/03/17 07:27:22;;;;;;;0.28;0.15;;;8.00;32.90;;;;;;5076505;28;20033;-72
2021/03/17 07:30:01;;;;;;;1.38;0.30;;;8.10;31.00;;;;;;5076438;28;20025;-72
2021/03/17 07:32:28;;;;;;;0.60;0.30;;;8.20;31.70;;;;;;5076457;28;20028;-72
2021/03/17 07:34:55;;;;;;;0.85;0.20;;;8.20;35.20;;;;;;5077618;28;20412;-72
2021/03/17 07:37:27;;;;;;;0.20;0.20;;;8.30;33.40;;;;;;5080281;28;20293;-72
2021/03/17 07:39:56;;;;;;;0.43;0.28;;;8.50;33.70;;;;;;5062295;28;20302;-72
2021/03/17 07:42:24;;;;;;;0.80;0.30;;;8.40;31.40;;;;;;5080196;28;20028;-72
2021/03/17 07:44:51;;;;;;;1.40;0.60;;;8.40;34.20;;;;;;5080070;28;20016;-72
2021/03/17 07:47:17;;;;;;;0.88;0.38;;;8.40;38.60;;;;;;5080132;28;20059;-72
2021/03/17 07:49:45;;;;;;;0.85;0.40;;;8.60;34.40;;;;;;5079752;28;20434;-72
2021/03/17 07:52:36;;;;;;;0.80;0.47;;;8.60;34.80;;;;;;5079686;28;20301;-72
2021/03/17 07:55:06;;;;;;;2.35;0.30;;;8.60;35.30;;;;;;5079094;28;20412;-72
2021/03/17 07:57:32;;;;;;;0.40;0.30;;;8.70;32.50;;;;;;5079846;28;20025;-72
2021/03/17 07:59:59;;;;;;;0.30;0.20;;;8.70;32.00;;;;;;5079599;28;20008;-72
2021/03/17 08:02:25;;;;;;;0.40;0.30;;;8.70;32.40;;;;;;5079559;28;20035;-72
2021/03/17 08:04:52;;;;;;;0.28;0.20;;;8.70;34.00;;;;;;5079472;28;20094;-72
2021/03/17 08:07:18;;;;;;;0.40;0.20;;;8.70;31.20;;;;;;5079561;28;20024;-72
2021/03/17 08:09:45;;;;;;;0.22;0.20;;;8.80;31.50;;;;;;5079584;28;20101;-72
2021/03/17 08:12:11;;;;;;;0.40;0.20;;;8.90;32.70;;;;;;5079397;28;20027;-72
2021/03/17 08:14:41;;;;;;;0.55;0.40;;;9.40;30.80;;;;;;5061550;28;20017;-72
2021/03/17 08:17:12;;;;;;;0.57;0.40;;;10.20;29.20;;;;;;5079308;28;20016;-72
2021/03/17 08:19:38;;;;;;;0.20;0.20;;;11.00;30.00;;;;;;5079306;28;20095;-72
2021/03/17 08:22:07;;;;;;;0.20;0.20;;;11.40;27.40;;;;;;5079109;28;20111;-73
2021/03/17 08:24:34;;;;;;;0.28;0.20;;;12.40;28.70;;;;;;5078921;28;20436;-73
2021/03/17 08:27:08;;;;;;;0.82;0.20;;;13.30;25.90;;;;;;5079404;28;20033;-72
2021/03/17 08:29:42;;;;;;;1.25;0.75;;;14.20;26.30;;;;;;5079048;28;20017;-73
2021/03/17 08:32:09;;;;;;;1.65;0.93;;;14.70;29.60;;;;;;5079329;28;20035;-73
2021/03/17 08:34:37;;;;;;;1.45;0.73;;;15.20;31.10;;;;;;5061216;28;20020;-73
2021/03/17 08:37:04;;;;;;;1.42;0.90;;;15.70;28.50;;;;;;5078880;28;20404;-72
2021/03/17 08:39:29;;;;;;;1.77;1.00;;;15.60;29.50;;;;;;5078794;28;20029;-73
2021/03/17 08:42:05;;;;;;;3.28;1.50;;;15.90;28.70;;;;;;5079049;28;20096;-73
2021/03/17 08:44:39;;;;;;;2.72;1.45;;;16.30;29.40;;;;;;5078755;28;20487;-72
2021/03/17 08:47:13;;;;;;;4.18;1.27;;;16.40;29.70;;;;;;5078589;28;20070;-73
2021/03/17 08:49:39;;;;;;;2.20;1.40;;;16.60;30.00;;;;;;5060929;28;20028;-73
2021/03/17 08:52:07;;;;;;;2.17;1.40;;;16.60;30.00;;;;;;5078615;28;20290;-72
2021/03/17 08:54:37;;;;;;;4.85;1.80;;;16.20;30.30;;;;;;5060652;28;20033;-72
2021/03/17 08:57:13;;;;;;;3.63;2.10;;;15.90;31.70;;;;;;5078972;28;20032;-72
2021/03/17 08:59:48;;;;;;;3.28;1.85;;;16.20;32.90;;;;;;5078805;28;20017;-73
2021/03/17 09:02:26;;;;;;;3.15;2.08;;;16.50;32.30;;;;;;5078455;28;20029;-73
2021/03/17 09:04:57;;;;;;;3.20;2.00;;;16.40;31.80;;;;;;5078390;28;20017;-73
2021/03/17 09:07:24;;;;;;;3.45;1.88;;;16.50;31.30;;;;;;5078412;28;20029;-72
2021/03/17 09:10:19;;;;;;;2.47;1.50;;;16.60;32.20;;;;;;5078411;28;20017;-72
2021/03/17 09:12:46;;;;;;;2.85;1.52;;;16.40;31.90;;;;;;5061266;28;20108;-73
2021/03/17 09:15:16;;;;;;;3.20;1.52;;;16.00;32.10;;;;;;5078084;28;20013;-73
2021/03/17 09:17:48;;;;;;;5.15;2.05;;;16.10;31.90;;;;;;5060455;28;20025;-73
2021/03/17 09:20:23;;;;;;;3.47;1.90;;;16.40;31.60;;;;;;5078107;28;20024;-73
2021/03/17 09:22:57;;;;;;;2.70;1.53;;;16.60;31.70;;;;;;5077989;28;20082;-73
2021/03/17 09:25:36;;;;;;;4.03;1.55;;;16.60;31.30;;;;;;5078024;28;20125;-73
2021/03/17 09:28:12;;;;;;;2.55;1.73;;;16.40;30.90;;;;;;5078069;28;20031;-73
2021/03/17 09:30:40;;;;;;;2.67;1.60;;;16.20;30.60;;;;;;5078224;28;20035;-72
2021/03/17 09:33:12;;;;;;;2.80;1.50;;;16.30;30.40;;;;;;5077694;28;20039;-73
2021/03/17 09:35:38;;;;;;;5.25;1.75;;;16.40;30.10;;;;;;5077836;28;20074;-72
2021/03/17 09:38:16;;;;;;;2.03;1.30;;;16.30;31.00;;;;;;5077774;28;20027;-73
2021/03/17 09:40:53;;;;;;;2.05;1.23;;;16.70;30.10;;;;;;5077664;28;20021;-72
2021/03/17 09:43:29;;;;;;;3.92;1.15;;;16.60;30.90;;;;;;5077538;28;20036;-73
2021/03/17 09:45:56;;;;;;;1.77;1.08;;;16.50;30.90;;;;;;5077662;28;20025;-73
2021/03/17 09:48:22;;;;;;;4.30;1.27;;;16.30;31.20;;;;;;5077565;28;20027;-73
2021/03/17 09:50:54;;;;;;;4.97;1.40;;;16.70;32.30;;;;;;5077491;28;20025;-73
2021/03/17 09:53:19;;;;;;;3.30;1.20;;;16.80;32.30;;;;;;5077420;28;20056;-73
2021/03/17 09:55:45;;;;;;;1.55;1.13;;;17.30;28.60;;;;;;5077336;28;20481;-72
2021/03/17 09:58:11;;;;;;;2.17;1.30;;;16.40;30.00;;;;;;5077514;28;20029;-73
2021/03/17 10:00:37;;;;;;;3.63;1.15;;;15.00;31.70;;;;;;5077288;28;20044;-73
2021/03/17 10:03:11;;;;;;;1.40;0.90;;;14.90;36.10;;;;;;5077372;28;20052;-72
2021/03/17 10:05:37;;;;;;;1.58;0.90;;;15.60;30.80;;;;;;5077518;28;20025;-73
2021/03/17 10:08:03;;;;;;;2.08;0.80;;;16.30;30.50;;;;;;5059506;28;20078;-73
2021/03/17 10:10:29;;;;;;;1.92;0.90;;;17.30;29.10;;;;;;5077124;28;20020;-73
2021/03/17 10:12:55;;;;;;;3.08;0.80;;;17.90;27.80;;;;;;5077949;28;20016;-72
2021/03/17 10:15:24;;;;;;;1.85;1.10;;;18.30;27.90;;;;;;5085341;28;20032;-72
2021/03/17 10:17:52;;;;;;;2.28;1.25;;;18.70;26.60;;;;;;5097549;28;20024;-71
2021/03/17 10:20:21;;;;;;;4.00;1.40;;;18.80;29.50;;;;;;5097361;28;20074;-72
2021/03/17 10:22:48;;;;;;;3.33;1.52;;;18.50;30.80;;;;;;5097150;28;20032;-74
2021/03/17 10:25:16;;;;;;;3.63;1.55;;;17.90;31.40;;;;;;5097085;28;20036;-72
2021/03/17 10:27:57;;;;;;;1.95;1.20;;;17.30;31.70;;;;;;5097064;28;20040;-73
2021/03/17 10:30:32;;;;;;;3.33;1.35;;;16.10;31.90;;;;;;5097370;28;20047;-73
2021/03/17 10:33:01;;;;;;;3.10;1.60;;;15.70;34.70;;;;;;5096905;28;20391;-73
2021/03/17 10:35:30;;;;;;;2.25;1.52;;;15.40;34.60;;;;;;5097220;28;20035;-73
2021/03/17 10:37:58;;;;;;;5.88;1.67;;;14.90;37.00;;;;;;5097047;28;20074;-73
2021/03/17 10:40:26;;;;;;;2.58;1.50;;;14.40;36.80;;;;;;5096956;28;20032;-73
2021/03/17 10:43:14;;;;;;;3.40;1.25;;;14.70;35.80;;;;;;5078948;28;20016;-73
2021/03/17 10:45:47;;;;;;;2.55;1.50;;;15.10;36.20;;;;;;5097109;28;20134;-73
2021/03/17 10:48:16;;;;;;;4.28;1.63;;;14.80;35.90;;;;;;5078995;28;20032;-72
2021/03/17 10:50:45;;;;;;;2.10;1.30;;;15.40;34.60;;;;;;5096882;28;20323;-73
2021/03/17 10:53:22;;;;;;;2.80;1.45;;;15.40;34.40;;;;;;5097080;28;20032;-73
2021/03/17 10:55:49;;;;;;;2.78;1.50;;;15.10;35.60;;;;;;5096780;28;20111;-73
2021/03/17 10:58:21;;;;;;;2.45;1.20;;;15.30;34.40;;;;;;5097063;28;20035;-73
2021/03/17 11:01:01;;;;;;;2.38;1.40;;;15.40;34.20;;;;;;5097096;28;20412;-72
2021/03/17 11:03:30;;;;;;;1.73;1.20;;;15.70;35.20;;;;;;5096822;28;20071;-73
2021/03/17 11:06:15;;;;;;;2.35;1.65;;;16.00;31.60;;;;;;5096643;28;20044;-73
2021/03/17 11:08:42;;;;;;;3.20;1.80;;;15.80;34.00;;;;;;5096865;28;20024;-73
2021/03/17 11:11:12;;;;;;;4.22;1.00;;;15.90;33.10;;;;;;5100172;28;20063;-73
2021/03/17 11:13:45;;;;;;;2.78;1.33;;;16.40;31.50;;;;;;5100732;28;20069;-73
2021/03/17 11:16:32;;;;;;;3.92;1.20;;;16.50;31.30;;;;;;5100784;28;20432;-71
2021/03/17 11:19:00;;;;;;;3.20;1.52;;;16.70;33.30;;;;;;5082747;28;20082;-73
2021/03/17 11:21:33;;;;;;;2.55;1.50;;;15.50;33.90;;;;;;5100666;28;20058;-73
2021/03/17 11:24:00;;;;;;;2.63;1.60;;;14.30;34.30;;;;;;5100468;28;20167;-71
2021/03/17 11:26:34;;;;;;;2.65;1.77;;;14.60;38.60;;;;;;5100489;28;20072;-71
2021/03/17 11:29:01;;;;;;;4.32;1.40;;;15.20;35.10;;;;;;5082539;28;20036;-73
2021/03/17 11:31:33;;;;;;;3.63;1.83;;;15.50;33.30;;;;;;5100451;28;20035;-71
2021/03/17 11:33:59;;;;;;;2.30;1.48;;;16.00;36.00;;;;;;5100417;28;20035;-71
2021/03/17 11:36:25;;;;;;;2.47;1.65;;;16.00;34.90;;;;;;5100311;28;20024;-71
2021/03/17 11:38:52;;;;;;;2.10;1.50;;;15.60;35.10;;;;;;5082325;28;20111;-73
2021/03/17 11:41:21;;;;;;;4.20;1.65;;;14.80;36.00;;;;;;5100590;28;20094;-71
2021/03/17 11:43:47;;;;;;;2.80;1.80;;;14.40;35.50;;;;;;5100101;28;20032;-71
2021/03/17 11:46:13;;;;;;;2.38;1.38;;;14.70;37.00;;;;;;5100163;28;20024;-73
2021/03/17 11:48:39;;;;;;;5.25;1.38;;;15.60;37.50;;;;;;5100107;28;20420;-73
2021/03/17 11:51:07;;;;;;;2.13;1.50;;;16.10;34.40;;;;;;5100083;28;20023;-73
2021/03/17 11:53:35;;;;;;;4.10;1.67;;;16.20;35.40;;;;;;5100380;28;20103;-73
2021/03/17 11:56:01;;;;;;;2.90;1.40;;;16.30;34.80;;;;;;5099934;28;20028;-73
2021/03/17 11:58:27;;;;;;;3.05;1.50;;;16.60;33.90;;;;;;5100119;28;20433;-73
2021/03/17 12:00:53;;;;;;;1.52;0.98;;;15.80;33.10;;;;;;5099892;28;20020;-74
2021/03/17 12:03:19;;;;;;;4.10;1.63;;;15.40;34.00;;;;;;5099793;28;20056;-73
2021/03/17 12:05:45;;;;;;;4.30;1.23;;;15.50;35.30;;;;;;5099855;28;20026;-73
2021/03/17 12:08:12;;;;;;;1.83;1.10;;;15.70;35.30;;;;;;5099729;28;20084;-72
2021/03/17 12:10:38;;;;;;;1.80;1.20;;;15.00;35.40;;;;;;5099715;28;20100;-73
2021/03/17 12:13:03;;;;;;;2.35;1.08;;;14.10;35.60;;;;;;5099521;28;20369;-74
2021/03/17 12:15:29;;;;;;;1.83;1.10;;;14.20;36.70;;;;;;5099808;28;20032;-74
2021/03/17 12:17:55;;;;;;;2.78;1.33;;;14.60;33.40;;;;;;5081708;28;20030;-74
2021/03/17 12:20:25;;;;;;;2.85;1.05;;;14.60;35.80;;;;;;5099646;28;20021;-74
2021/03/17 12:22:52;;;;;;;2.42;1.27;;;14.20;34.70;;;;;;5098340;28;20032;-74
2021/03/17 12:25:18;;;;;;;1.80;0.85;;;14.20;37.40;;;;;;5099703;28;20107;-74
2021/03/17 12:27:43;;;;;;;1.55;1.08;;;14.20;35.80;;;;;;5081487;28;20119;-73
2021/03/17 12:30:11;;;;;;;1.80;1.00;;;14.40;34.00;;;;;;5099570;28;20020;-74
2021/03/17 12:32:38;;;;;;;1.85;1.00;;;14.30;36.20;;;;;;5099275;28;20094;-74
2021/03/17 12:35:11;;;;;;;1.27;0.77;;;14.00;35.90;;;;;;5099125;28;20058;-74
2021/03/17 12:37:38;;;;;;;1.95;0.82;;;13.40;32.80;;;;;;5099283;28;20360;-73
2021/03/17 12:40:05;;;;;;;1.80;0.93;;;12.60;32.90;;;;;;5099167;28;20024;-74
2021/03/17 12:42:31;;;;;;;1.08;0.75;;;12.00;34.90;;;;;;5099092;28;20412;-74
2021/03/17 12:44:57;;;;;;;1.27;0.70;;;11.70;37.40;;;;;;5099010;28;20031;-74
2021/03/17 12:47:23;;;;;;;1.30;0.88;;;11.50;38.40;;;;;;5099337;28;20346;-74
2021/03/17 12:49:48;;;;;;;2.08;0.98;;;11.60;37.30;;;;;;5098954;28;20066;-74
2021/03/17 12:52:14;;;;;;;1.90;1.10;;;11.80;37.30;;;;;;5098825;28;20085;-74
2021/03/17 12:54:40;;;;;;;2.53;1.45;;;12.00;35.60;;;;;;5080907;28;20173;-73
2021/03/17 12:57:10;;;;;;;2.33;0.90;;;12.10;36.10;;;;;;5080909;28;20032;-73
2021/03/17 12:59:36;;;;;;;1.92;0.90;;;11.90;33.70;;;;;;5099058;28;20022;-74
2021/03/17 13:02:02;;;;;;;1.95;1.20;;;11.90;37.40;;;;;;5099013;28;20157;-74
2021/03/17 13:04:28;;;;;;;2.22;0.95;;;11.90;37.80;;;;;;5098660;28;20052;-74